Warning: Javascript must be enabled to use all the features on this page!


Page Loading - Please Wait...

Click to hideNews Bulletins

Peak Streamflow for Texas

Click to hide state-specific text

Explore Real-time Water Data Using New Products from USGS TXWSC

View over 750 USGS real-time stream, lake, reservoir, precipitation, and groundwater stations in context with current weather and hazard conditions on both desktop and mobile devices.

Click to go to the Texas Water Dashboard Click to go to the WATER On-the-go app

Follow @USGS_TexasFlood and @USGS_TexasRain on Twitter to get current water level and precipitation data during flooding or severe rainfall events.


USGS 08095000 N Bosque Rv nr Clifton, TX

Bosque County, Texas
Hydrologic Unit Code 12060204
Latitude  31°47'09", Longitude  97°34'04" NAD27
Drainage area 968  square miles
Contributing drainage area 968  square miles
Gage datum 605.43 feet above NGVD29
Output formats
Table
Graph
Tab-separated file
peakfq (watstore) format
Reselect output format
Water
Year
Date Gage
Height
(feet)
Stream-
flow
(cfs)
1922 1922-05-09 32.005  
1924 1924-04-26 9.653 14,3005
1925 1925-05-10 5.983 7,7605
1926 1926-04-10 7.083 10,4005
1927 1927-05-13 10.153 15,2005
1928 1928-04-04 8.563 12,7005
1929 1929-09-08 16.803 26,8005
1930 1930-05-18 12.003 18,3005
1931 1930-10-06 16.303 25,9005
1932 1932-02-18 15.403 24,3005
1933 1933-05-25 13.803 21,4005
1934 1934-04-06 8.203 12,0005
1935 1935-05-18 21.303 38,3005
1936 1936-09-27 19.803 32,4005
1937 1936-10-25 11.203 16,9005
1938 1938-01-23 21.823 38,5005
1939 1939-06-19 15.463 24,5005
1940 1940-04-07 4.683 4,9705
1941 1941-05-05 22.103 36,4005
1942 1942-09-07 17.703 27,9005
1943 1942-10-17 13.303 20,1005
1944 1944-05-02 21.903 36,0005
1945 1945-04-22 23.203 39,0005
1946 1946-03-13 8.653 12,8005
1947 1946-11-04 5.753 7,2705
1948 1948-02-25 19.903 31,9005
1949 1949-05-17 10.203 15,2005
1950 1950-09-05 7.043 9,7505
1951 1951-06-03 4.263 4,1005
1952 1952-05-24 21.603 35,4005
1953 1952-11-25 4.253 3,9905
1954 1954-06-16 4.483 4,5705
1955 1955-05-19 14.003 21,3005
1956 1956-05-02 27.823 29,9005
1957 1957-04-27 32.206 37,4005
1958 1958-05-02 28.60 32,2005
1959 1959-06-05 11.45 6,2805
1960 1959-10-04 34.88 92,8005
1961 1961-02-05 18.66 16,0005
1962 1961-10-10 24.85 25,1005
1963 1962-10-09 14.98 11,0005
1964 1963-11-09 21.19 19,5005
1965 1965-05-16 32.50 38,5005
1966 1966-04-25 22.95 22,2005
1967 1967-04-23 8.26 3,0505
1968 1968-05-11 30.00 33,6006
1969 1969-05-07 21.05 19,2006
1970 1969-10-30 15.85 12,0006
1971 1971-05-29 7.26 2,2106
1972 1971-10-20 31.79 36,8006
1973 1973-04-24 20.79 18,1006
1974 1974-09-17 10.68 5,4506
1975 1975-04-08 17.49 14,2006
1976 1976-05-25 15.88 12,0006
1977 1977-04-30 31.31 36,4006
1978 1978-05-12 5.89 1,2506
1979 1979-05-04 30.15 34,3006
1980 1980-05-15 6.81 1,8606
1981 1981-06-16 22.43 21,4006
1982 1982-05-06 14.37 10,1006
1983 1983-05-31 7.08 2,2306
1984 1984-03-23 11.19 6,0306
1985 1984-10-18 9.82 4,5006
1986 1986-06-05 23.60 23,2006
1987 1987-05-29 21.88 20,5006
1988 1988-06-01 26.82 28,4006
1989 1989-03-28 32.13 37,9006
1990 1990-04-26 34.40 82,4006
1991 1991-06-03 10.23 6,4406
1992 1991-12-20 38.30 200,0006
1993 1993-02-04 9.76 7,2306
1994 1994-05-11 24.85 32,5006
1995 1995-06-11 22.83 29,1006
1996 1996-08-30 15.76 17,2006
1997 1997-02-20 26.36 36,0006
1998 1998-03-16 34.88 137,0006
1999 1998-11-13 5.04 1,5706
2000 2000-06-15 20.75 24,8006
2001 2001-03-12 15.82 16,5006
2002 2002-03-20 17.46 19,1006
2003 2003-09-19 10.61 8,4606
2004 2004-05-01 26.48 38,9006
2005 2004-11-17 22.17 28,3006
2006 2006-03-19 9.14 6,2806
2007 2007-06-27 33.37 46,5006
2008 2008-04-24 10.28 7,9606
2009 2009-09-13 5.74 2,1006
2010 2010-01-29 26.68 35,3006
2011 2011-04-11 2.46 1476
2012 2012-03-20 18.39 21,3006
2013 2013-09-20 3.98 6916
2014 2014-05-27 7.79 4,4606
2015 2015-05-29 29.44 39,9006
2016 2016-04-18 23.22 29,5006
2017 2017-04-02 10.98 8,9906
2018 2018-09-22 9.53 6,8406
2019 2018-10-16 28.01 37,5006
2020 2020-03-22 8.99 6,0706
2021 2021-06-07 14.14 13,8006
?
  Peak Gage-Height Qualification Codes.
?
  Peak Streamflow Qualification Codes.